Time;durP1;ratioP1;P1;durP2;ratioP2;P2;SDS_P1;SDS_P2;PMS_P1;PMS_P2;Temp;Humidity;BMP_temperature;BMP_pressure;BME280_temperature;BME280_humidity;BME280_pressure;Samples;Min_cycle;Max_cycle;Signal;HPM_P1;HPM_P2
2022/01/27 00:05:31;;;;;;;60.00;50.83;;;16.60;52.40;;;;;;5009029;27;85414;-74
2022/01/27 00:13:09;;;;;;;59.15;50.75;;;16.60;52.60;;;;;;5031061;27;86291;-73
2022/01/27 00:15:35;;;;;;;60.83;50.70;;;16.60;52.90;;;;;;5026203;27;86973;-74
2022/01/27 00:18:08;;;;;;;58.92;50.45;;;16.50;52.50;;;;;;5032591;27;86508;-74
2022/01/27 00:20:33;;;;;;;59.00;50.45;;;16.50;52.80;;;;;;5029051;27;86591;-74
2022/01/27 00:22:59;;;;;;;60.42;50.72;;;16.40;52.80;;;;;;5040448;27;85595;-74
2022/01/27 00:25:25;;;;;;;59.33;50.83;;;16.40;53.00;;;;;;5039302;27;86090;-73
2022/01/27 00:27:50;;;;;;;60.45;50.08;;;16.40;53.10;;;;;;5031185;27;87735;-73
2022/01/27 00:30:16;;;;;;;58.92;50.22;;;16.30;53.30;;;;;;5036290;27;85587;-74
2022/01/27 00:32:42;;;;;;;58.75;50.35;;;16.30;53.20;;;;;;5041616;27;86906;-74
2022/01/27 00:35:08;;;;;;;60.30;50.55;;;16.30;53.10;;;;;;5025772;27;85532;-74
2022/01/27 00:37:34;;;;;;;59.42;50.67;;;16.20;53.50;;;;;;5039635;27;86268;-73
2022/01/27 00:40:00;;;;;;;59.10;50.17;;;16.10;53.50;;;;;;5037500;27;86371;-74
2022/01/27 00:42:27;;;;;;;58.65;50.40;;;16.10;53.70;;;;;;5042707;27;85822;-73
2022/01/27 00:44:54;;;;;;;60.30;50.67;;;16.10;53.70;;;;;;5043201;27;85499;-73
2022/01/27 00:47:20;;;;;;;58.95;50.47;;;16.00;53.70;;;;;;5043465;27;86388;-73
2022/01/27 00:49:46;;;;;;;58.38;49.92;;;16.00;53.90;;;;;;5039297;27;89722;-73
2022/01/27 00:52:16;;;;;;;58.85;50.25;;;16.00;53.80;;;;;;5037950;27;86509;-73
2022/01/27 00:54:43;;;;;;;59.80;50.60;;;16.00;54.00;;;;;;5044198;27;86465;-73
2022/01/27 00:57:23;;;;;;;59.78;50.25;;;15.90;54.00;;;;;;5039510;27;86138;-73
2022/01/27 00:59:59;;;;;;;59.40;50.22;;;15.90;53.70;;;;;;5041409;27;89929;-74
2022/01/27 01:05:03;;;;;;;57.63;49.90;;;15.90;53.90;;;;;;5038618;27;85351;-74
2022/01/27 01:07:33;;;;;;;58.25;50.17;;;15.90;53.90;;;;;;5023262;27;87449;-73
2022/01/27 01:15:16;;;;;;;60.42;50.10;;;16.00;53.70;;;;;;5039611;27;85641;-73
2022/01/27 01:18:17;;;;;;;58.10;50.28;;;16.00;53.70;;;;;;5037418;27;86364;-73
2022/01/27 01:33:56;;;;;;;59.47;50.50;;;16.10;53.50;;;;;;5036910;27;85345;-73
2022/01/27 01:36:37;;;;;;;58.15;50.53;;;16.00;53.40;;;;;;5037665;27;85413;-73
2022/01/27 01:39:04;;;;;;;58.92;50.35;;;16.10;53.50;;;;;;5024610;27;87086;-73
2022/01/27 01:41:31;;;;;;;58.17;50.15;;;16.10;53.50;;;;;;5032650;27;87435;-73
2022/01/27 01:43:57;;;;;;;57.80;50.45;;;16.10;53.70;;;;;;5039324;27;86551;-73
2022/01/27 01:46:22;;;;;;;58.38;50.08;;;16.20;53.50;;;;;;5044633;27;89300;-73
2022/01/27 01:48:48;;;;;;;58.67;50.33;;;16.10;53.50;;;;;;5032943;27;87107;-73
2022/01/27 01:51:30;;;;;;;58.10;50.00;;;16.20;53.30;;;;;;5035049;27;85580;-73
2022/01/27 01:53:56;;;;;;;57.95;50.10;;;16.10;53.20;;;;;;5034843;27;86098;-73
2022/01/27 01:56:23;;;;;;;57.75;49.63;;;16.10;53.30;;;;;;5035626;27;85847;-74
2022/01/27 01:58:49;;;;;;;59.65;50.25;;;16.10;53.20;;;;;;5032286;27;86261;-73
2022/01/27 02:01:16;;;;;;;59.53;50.58;;;16.10;53.20;;;;;;5037250;27;88800;-73
2022/01/27 02:03:41;;;;;;;58.25;49.97;;;16.20;53.10;;;;;;5037351;27;85942;-73
2022/01/27 02:06:16;;;;;;;58.05;49.63;;;16.10;53.30;;;;;;5031972;27;85063;-73
2022/01/27 02:08:49;;;;;;;57.28;49.80;;;16.10;53.10;;;;;;5035552;27;90611;-73
2022/01/27 02:19:30;;;;;;;57.15;49.92;;;16.20;53.20;;;;;;5035902;27;85225;-73
2022/01/27 02:22:02;;;;;;;59.05;50.05;;;16.20;53.40;;;;;;5036032;27;85888;-73
2022/01/27 02:24:30;;;;;;;59.45;50.53;;;16.10;53.00;;;;;;5043387;27;85795;-73
2022/01/27 02:26:57;;;;;;;57.15;49.78;;;16.20;53.00;;;;;;5028676;27;85106;-73
2022/01/27 02:29:24;;;;;;;60.08;50.25;;;16.10;53.20;;;;;;5037715;27;86085;-74
2022/01/27 02:31:51;;;;;;;57.78;50.13;;;16.10;53.20;;;;;;5040323;27;85577;-73
2022/01/27 02:34:18;;;;;;;57.50;50.13;;;16.10;53.20;;;;;;5038944;27;85430;-73
2022/01/27 02:36:44;;;;;;;58.00;50.35;;;16.10;53.40;;;;;;5037148;27;85535;-73
2022/01/27 02:39:10;;;;;;;57.47;49.92;;;16.10;53.20;;;;;;5041559;27;86871;-73
2022/01/27 02:41:46;;;;;;;57.88;49.85;;;16.10;53.30;;;;;;5033847;27;86033;-73
2022/01/27 02:44:47;;;;;;;59.03;50.25;;;16.10;53.50;;;;;;5018560;27;86059;-73
2022/01/27 02:47:14;;;;;;;57.10;49.78;;;16.10;53.40;;;;;;5028268;27;85944;-73
2022/01/27 02:49:40;;;;;;;57.78;49.97;;;16.10;53.30;;;;;;5039711;27;85709;-74
2022/01/27 02:52:06;;;;;;;58.28;49.90;;;16.10;53.50;;;;;;5023178;27;87501;-73
2022/01/27 02:54:32;;;;;;;57.67;49.83;;;16.10;53.40;;;;;;5038577;27;85295;-73
2022/01/27 02:56:57;;;;;;;58.08;49.67;;;16.10;53.10;;;;;;5039839;27;85490;-73
2022/01/27 02:59:23;;;;;;;58.33;50.22;;;16.00;53.10;;;;;;5037246;27;85759;-73
2022/01/27 03:01:50;;;;;;;58.33;49.90;;;16.00;53.20;;;;;;5021519;27;86617;-73
2022/01/27 03:04:18;;;;;;;58.47;49.80;;;16.00;53.20;;;;;;5045344;27;85509;-73
2022/01/27 03:06:44;;;;;;;56.70;49.40;;;16.00;53.30;;;;;;5039219;27;85174;-73
2022/01/27 03:09:10;;;;;;;57.63;50.00;;;16.00;53.30;;;;;;5036631;27;86713;-73
2022/01/27 03:11:38;;;;;;;59.58;50.55;;;16.10;53.40;;;;;;5033248;27;87915;-73
2022/01/27 03:14:05;;;;;;;59.08;50.53;;;16.10;53.20;;;;;;5017333;27;88600;-73
2022/01/27 03:16:31;;;;;;;58.30;50.17;;;16.00;53.20;;;;;;5037030;27;85442;-73
2022/01/27 03:18:56;;;;;;;58.42;49.90;;;16.00;53.20;;;;;;5035924;27;85730;-74
2022/01/27 03:21:22;;;;;;;58.30;49.88;;;16.00;53.30;;;;;;5035286;27;86157;-73
2022/01/27 03:23:48;;;;;;;59.20;50.45;;;16.00;53.20;;;;;;5035901;27;85244;-73
2022/01/27 03:26:13;;;;;;;57.00;49.53;;;16.00;53.20;;;;;;5029450;27;85769;-72
2022/01/27 03:28:39;;;;;;;57.10;49.80;;;16.00;53.40;;;;;;5031663;27;85141;-73
2022/01/27 03:31:05;;;;;;;58.55;50.70;;;16.00;53.30;;;;;;5032985;27;85776;-73
2022/01/27 03:33:31;;;;;;;59.03;50.35;;;16.00;53.40;;;;;;5021889;27;85592;-73
2022/01/27 03:35:57;;;;;;;58.53;50.47;;;16.00;53.30;;;;;;5016997;27;85161;-73
2022/01/27 03:38:35;;;;;;;57.95;49.80;;;16.00;53.00;;;;;;2018698;27;10099901;-74
2022/01/27 03:41:05;;;;;;;59.85;50.53;;;16.00;53.20;;;;;;3632220;27;10085889;-73
2022/01/27 03:43:31;;;;;;;58.30;49.83;;;16.00;53.20;;;;;;5030392;27;85376;-73
2022/01/27 03:45:57;;;;;;;58.47;50.13;;;16.00;53.40;;;;;;5036065;27;85453;-73
2022/01/27 03:48:22;;;;;;;58.05;50.10;;;16.00;53.30;;;;;;5038212;27;85981;-73
2022/01/27 03:50:48;;;;;;;58.83;49.70;;;16.00;53.50;;;;;;5037449;27;86048;-74
2022/01/27 03:53:15;;;;;;;56.72;49.63;;;16.10;53.30;;;;;;5034061;27;85844;-74
2022/01/27 03:55:41;;;;;;;57.72;50.20;;;16.10;53.40;;;;;;5035027;27;86362;-72
2022/01/27 03:58:07;;;;;;;57.97;50.25;;;16.10;53.20;;;;;;5037724;27;87303;-73
2022/01/27 04:00:34;;;;;;;58.28;50.38;;;16.10;53.30;;;;;;5040280;27;85411;-73
2022/01/27 04:03:08;;;;;;;56.80;49.75;;;16.10;53.10;;;;;;5037835;27;85611;-73
2022/01/27 04:05:38;;;;;;;60.08;50.50;;;16.10;53.30;;;;;;5016876;27;85952;-73
2022/01/27 04:08:05;;;;;;;57.50;50.03;;;16.10;53.20;;;;;;5039053;27;85745;-73
2022/01/27 04:10:31;;;;;;;57.25;49.88;;;16.10;53.20;;;;;;5036108;27;88019;-73
2022/01/27 04:12:57;;;;;;;58.47;50.58;;;16.10;53.20;;;;;;5038728;27;86223;-74
2022/01/27 04:15:23;;;;;;;58.13;49.72;;;16.00;53.20;;;;;;5047667;27;85163;-73
2022/01/27 04:17:49;;;;;;;58.40;50.28;;;16.00;53.30;;;;;;5037092;27;86091;-73
2022/01/27 04:20:15;;;;;;;57.33;49.97;;;16.00;53.30;;;;;;5040199;27;85619;-73
2022/01/27 04:22:40;;;;;;;59.08;50.60;;;16.00;53.50;;;;;;5040664;27;86137;-74
2022/01/27 04:25:07;;;;;;;56.75;49.78;;;16.00;53.20;;;;;;5038454;27;86618;-73
2022/01/27 04:27:38;;;;;;;58.05;50.03;;;16.00;53.50;;;;;;5034894;27;86063;-73
2022/01/27 04:30:07;;;;;;;57.15;49.90;;;16.00;53.50;;;;;;5036391;27;86765;-73
2022/01/27 04:32:41;;;;;;;59.47;50.50;;;16.00;53.50;;;;;;5021485;27;85123;-73
2022/01/27 04:35:14;;;;;;;57.67;50.08;;;16.00;53.60;;;;;;5044577;27;85860;-73
2022/01/27 04:37:50;;;;;;;57.78;50.40;;;16.00;53.40;;;;;;5031984;27;85685;-73
2022/01/27 04:40:17;;;;;;;57.72;50.03;;;15.90;53.60;;;;;;5041954;27;86649;-73
2022/01/27 04:45:10;;;;;;;59.50;50.50;;;15.90;53.60;;;;;;5043468;27;85259;-73
2022/01/27 04:47:41;;;;;;;58.30;50.20;;;15.90;53.60;;;;;;5040727;27;86920;-73
2022/01/27 04:50:07;;;;;;;58.08;50.20;;;15.90;53.70;;;;;;5037015;27;85815;-73
2022/01/27 04:52:38;;;;;;;58.72;50.22;;;15.90;53.80;;;;;;5041241;27;85163;-73
2022/01/27 04:55:08;;;;;;;57.90;50.63;;;15.90;53.70;;;;;;5023773;27;85502;-73
2022/01/27 04:57:36;;;;;;;58.03;50.10;;;15.80;53.90;;;;;;5036841;27;85750;-73
2022/01/27 05:00:02;;;;;;;60.10;50.72;;;15.80;54.10;;;;;;5042400;27;85191;-73
2022/01/27 05:04:59;;;;;;;58.10;50.13;;;15.80;53.70;;;;;;5042055;27;85261;-72
2022/01/27 05:07:24;;;;;;;59.10;50.05;;;15.80;53.90;;;;;;5043524;27;85743;-73
2022/01/27 05:09:56;;;;;;;58.15;49.92;;;15.80;53.80;;;;;;5035684;27;86492;-73
2022/01/27 05:12:43;;;;;;;;;;;15.80;53.90;;;;;;5037865;27;85522;-73
2022/01/27 05:15:10;;;;;;;57.63;49.75;;;15.80;53.80;;;;;;5038787;27;86269;-73
2022/01/27 05:17:35;;;;;;;57.38;50.05;;;15.80;53.70;;;;;;5039803;27;86836;-73
2022/01/27 05:20:01;;;;;;;57.92;50.20;;;15.80;54.20;;;;;;5039256;27;86041;-73
2022/01/27 05:22:27;;;;;;;58.72;50.50;;;15.80;54.00;;;;;;5018580;27;85207;-73
2022/01/27 05:24:53;;;;;;;59.65;50.78;;;15.80;53.80;;;;;;5039691;27;86048;-73
2022/01/27 05:27:18;;;;;;;57.72;50.40;;;15.90;54.30;;;;;;5034935;27;86281;-74
2022/01/27 05:29:44;;;;;;;58.22;50.30;;;16.00;54.80;;;;;;5034565;27;91318;-73
2022/01/27 05:32:09;;;;;;;61.13;51.30;;;16.20;54.10;;;;;;5045560;27;85315;-74
2022/01/27 05:34:35;;;;;;;59.22;51.05;;;16.40;53.60;;;;;;5020235;27;89010;-74
2022/01/27 05:37:01;;;;;;;59.58;50.63;;;16.50;53.40;;;;;;5028442;27;86824;-73
2022/01/27 05:39:26;;;;;;;58.78;50.72;;;16.50;53.40;;;;;;5042730;27;86219;-73
2022/01/27 05:41:53;;;;;;;57.85;50.28;;;16.50;53.40;;;;;;5042263;27;85044;-73
2022/01/27 05:44:19;;;;;;;58.42;50.10;;;16.60;53.00;;;;;;5019363;27;86399;-74
2022/01/27 05:46:44;;;;;;;58.88;51.05;;;16.60;52.70;;;;;;5018893;27;87576;-73
2022/01/27 05:49:10;;;;;;;59.42;51.17;;;16.70;52.20;;;;;;5044497;27;85531;-73
2022/01/27 05:51:36;;;;;;;60.33;50.95;;;16.70;51.80;;;;;;5043116;27;85126;-73
2022/01/27 05:54:01;;;;;;;58.20;50.58;;;16.70;52.20;;;;;;5025415;27;90561;-73
2022/01/27 05:56:27;;;;;;;58.40;50.13;;;16.70;51.80;;;;;;5035846;27;85480;-73
2022/01/27 05:58:53;;;;;;;58.88;50.92;;;16.80;52.80;;;;;;5041024;27;85250;-73
2022/01/27 06:01:21;;;;;;;60.42;50.67;;;16.80;51.80;;;;;;5015703;27;85752;-74
2022/01/27 06:03:46;;;;;;;59.13;50.67;;;16.80;52.20;;;;;;5030027;27;87717;-73
2022/01/27 06:06:12;;;;;;;60.05;50.67;;;16.80;51.90;;;;;;5021537;27;88552;-73
2022/01/27 06:08:38;;;;;;;60.55;51.05;;;16.80;52.10;;;;;;5024117;27;86596;-74
2022/01/27 06:11:05;;;;;;;60.95;50.50;;;16.90;52.40;;;;;;5030795;27;90176;-73
2022/01/27 06:13:33;;;;;;;61.90;51.40;;;17.00;52.20;;;;;;5024822;27;85330;-74
2022/01/27 06:16:08;;;;;;;60.95;50.47;;;17.10;52.30;;;;;;5026468;27;86730;-74
2022/01/27 06:18:34;;;;;;;65.45;51.70;;;17.10;52.20;;;;;;5017619;27;86812;-73
2022/01/27 06:21:03;;;;;;;62.47;51.60;;;17.20;51.80;;;;;;5006733;27;85851;-72
2022/01/27 06:23:29;;;;;;;64.25;50.83;;;17.10;51.70;;;;;;5020452;27;85709;-77
2022/01/27 06:25:54;;;;;;;64.10;51.72;;;17.10;52.00;;;;;;5017866;27;88843;-77
2022/01/27 06:28:20;;;;;;;61.63;51.50;;;17.20;52.60;;;;;;5029432;27;86942;-78
2022/01/27 06:30:48;;;;;;;61.35;51.15;;;17.20;53.00;;;;;;5029707;27;90717;-76
2022/01/27 06:33:17;;;;;;;62.20;51.25;;;17.30;53.10;;;;;;5027668;27;92846;-78
2022/01/27 06:35:46;;;;;;;63.33;51.72;;;17.40;53.20;;;;;;5019999;27;91669;-77
2022/01/27 06:38:17;;;;;;;62.65;51.80;;;17.50;52.50;;;;;;5027935;27;92399;-77
2022/01/27 06:40:43;;;;;;;61.43;51.87;;;17.50;52.50;;;;;;5020436;27;97717;-76
2022/01/27 06:43:14;;;;;;;63.65;52.08;;;17.60;52.70;;;;;;5021552;27;92890;-76
2022/01/27 06:45:43;;;;;;;63.80;51.47;;;17.60;52.10;;;;;;5015058;27;89634;-76
2022/01/27 06:48:19;;;;;;;61.97;51.90;;;17.60;51.40;;;;;;5008901;27;89524;-77
2022/01/27 06:50:50;;;;;;;62.95;51.75;;;17.60;51.20;;;;;;5032957;27;89772;-76
2022/01/27 06:53:16;;;;;;;65.30;51.88;;;17.60;51.40;;;;;;5033766;27;91238;-74
2022/01/27 06:55:42;;;;;;;60.92;51.65;;;17.60;51.30;;;;;;5025270;27;91796;-75
2022/01/27 06:58:07;;;;;;;64.30;51.78;;;17.60;51.20;;;;;;5023700;27;89802;-74
2022/01/27 07:00:33;;;;;;;64.03;52.00;;;17.70;51.10;;;;;;5029031;27;89877;-74
2022/01/27 07:03:01;;;;;;;66.63;52.58;;;17.60;51.20;;;;;;5023474;27;96212;-74
2022/01/27 07:05:31;;;;;;;72.30;52.33;;;17.70;51.30;;;;;;5026411;27;92594;-75
2022/01/27 07:08:06;;;;;;;66.57;52.83;;;17.70;51.30;;;;;;5025397;27;90630;-75
2022/01/27 07:10:32;;;;;;;64.43;51.67;;;17.70;51.20;;;;;;5031454;27;91250;-74
2022/01/27 07:13:01;;;;;;;70.13;52.63;;;17.70;51.00;;;;;;5026106;27;90334;-75
2022/01/27 07:15:30;;;;;;;67.38;52.05;;;17.70;51.70;;;;;;5001313;27;90381;-76
2022/01/27 07:18:05;;;;;;;70.18;52.38;;;17.60;51.90;;;;;;5027729;27;90103;-75
2022/01/27 07:20:45;;;;;;;65.78;52.50;;;17.70;52.00;;;;;;5012178;27;95158;-75
2022/01/27 07:23:17;;;;;;;67.10;52.95;;;17.70;52.50;;;;;;5009574;27;90453;-74
2022/01/27 07:25:51;;;;;;;66.45;52.53;;;17.70;52.10;;;;;;4984245;27;94024;-74
2022/01/27 07:28:19;;;;;;;64.68;51.70;;;17.80;52.70;;;;;;4995760;27;92020;-74
2022/01/27 07:30:54;;;;;;;63.15;51.35;;;17.80;53.70;;;;;;5005201;27;91426;-74
2022/01/27 07:33:25;;;;;;;70.20;52.97;;;17.80;54.10;;;;;;4994112;27;95107;-75
2022/01/27 07:35:57;;;;;;;72.32;53.83;;;17.90;54.30;;;;;;5009926;27;90889;-76
2022/01/27 07:38:27;;;;;;;74.70;55.08;;;18.00;54.20;;;;;;5024104;27;90846;-77
2022/01/27 07:40:58;;;;;;;75.90;55.92;;;18.20;53.90;;;;;;5009652;27;90531;-75
2022/01/27 07:43:46;;;;;;;76.45;56.58;;;18.40;52.80;;;;;;5015665;27;95463;-76
2022/01/27 07:46:45;;;;;;;;;;;;;;;;;;;;;
2022/01/27 07:49:17;;;;;;;71.95;56.38;;;18.60;51.60;;;;;;5013574;27;114614;-75
2022/01/27 07:51:48;;;;;;;;;;;18.60;51.50;;;;;;5021396;27;90588;-75
2022/01/27 07:54:17;;;;;;;79.78;56.75;;;18.60;51.50;;;;;;5024404;27;91702;-76
2022/01/27 07:59:51;;;;;;;76.25;57.80;;;18.60;51.70;;;;;;5019000;27;89898;-76
2022/01/27 08:02:36;;;;;;;76.72;58.00;;;18.70;51.20;;;;;;5031827;27;94244;-77
2022/01/27 08:05:10;;;;;;;75.32;57.60;;;18.70;50.90;;;;;;5017047;27;90152;-76
2022/01/27 08:08:14;;;;;;;74.45;58.03;;;18.70;50.70;;;;;;4999461;27;92228;-76
2022/01/27 08:10:48;;;;;;;77.70;58.40;;;18.70;50.60;;;;;;4999768;27;90785;-76
2022/01/27 08:13:41;;;;;;;;;;;;;;;;;;;;;
2022/01/27 08:16:19;;;;;;;72.78;58.00;;;18.70;50.10;;;;;;4988122;27;118325;-76
2022/01/27 08:22:07;;;;;;;;;;;18.80;49.90;;;;;;5003940;27;91175;-75
2022/01/27 08:27:49;;;;;;;78.22;57.83;;;18.80;49.90;;;;;;5002108;22;91584;-75
2022/01/27 08:30:29;;;;;;;74.68;57.88;;;18.80;49.90;;;;;;4954786;28;91132;-76
2022/01/27 08:33:04;;;;;;;73.18;57.72;;;18.80;49.80;;;;;;4970224;28;90401;-75
2022/01/27 08:35:38;;;;;;;72.22;57.78;;;18.70;49.70;;;;;;4953058;28;90797;-75
2022/01/27 08:38:20;;;;;;;78.65;57.70;;;18.70;49.60;;;;;;4965985;28;90324;-76
2022/01/27 08:40:49;;;;;;;75.47;56.70;;;18.70;49.50;;;;;;4964594;28;93496;-77
2022/01/27 08:43:14;;;;;;;75.45;56.55;;;18.80;49.50;;;;;;4952547;28;95168;-75
2022/01/27 08:45:44;;;;;;;71.53;56.40;;;18.80;49.40;;;;;;4949645;28;90613;-75
2022/01/27 08:48:21;;;;;;;77.13;56.42;;;18.90;48.90;;;;;;4977518;28;90779;-76
2022/01/27 08:51:22;;;;;;;76.07;56.80;;;18.90;49.50;;;;;;4977407;28;92817;-75
2022/01/27 08:53:53;;;;;;;76.70;57.28;;;19.00;49.00;;;;;;4962369;28;91618;-76
2022/01/27 08:56:19;;;;;;;80.70;58.17;;;18.90;49.20;;;;;;4976468;28;94822;-75
2022/01/27 08:58:47;;;;;;;78.50;58.00;;;19.00;49.20;;;;;;4984836;28;92515;-76
2022/01/27 09:01:47;;;;;;;76.57;57.33;;;19.00;49.20;;;;;;4981733;28;92523;-75
2022/01/27 09:06:49;;;;;;;75.22;56.95;;;19.00;48.80;;;;;;4912447;22;92077;-74
2022/01/27 09:09:17;;;;;;;74.95;56.00;;;19.10;48.80;;;;;;4915384;28;90465;-75
2022/01/27 09:11:46;;;;;;;83.03;56.70;;;19.10;48.40;;;;;;4920473;28;90858;-75
2022/01/27 09:14:13;;;;;;;78.28;57.45;;;19.10;48.20;;;;;;4918409;28;92680;-74
2022/01/27 09:16:42;;;;;;;76.22;56.22;;;19.10;47.80;;;;;;4906714;28;91245;-75
2022/01/27 09:19:11;;;;;;;77.72;56.53;;;19.00;48.00;;;;;;4895807;28;91062;-75
2022/01/27 09:21:53;;;;;;;78.68;56.63;;;19.10;48.00;;;;;;4905898;28;90410;-76
2022/01/27 09:24:27;;;;;;;76.68;56.13;;;19.20;47.80;;;;;;4906660;28;93236;-76
2022/01/27 09:27:01;;;;;;;76.72;56.25;;;19.30;47.80;;;;;;4905437;28;90105;-77
2022/01/27 09:29:27;;;;;;;76.55;56.60;;;19.50;47.10;;;;;;4901044;28;90076;-75
2022/01/27 09:31:54;;;;;;;76.90;56.40;;;19.50;47.10;;;;;;4866085;28;93621;-75
2022/01/27 09:34:20;;;;;;;79.13;57.05;;;19.70;47.00;;;;;;4905193;28;89818;-76
2022/01/27 09:36:46;;;;;;;77.60;56.78;;;19.90;46.80;;;;;;4884782;28;90288;-75
2022/01/27 09:39:14;;;;;;;76.60;56.10;;;20.00;46.50;;;;;;4890988;28;93222;-77
2022/01/27 09:42:03;;;;;;;73.62;50.68;;;20.10;46.50;;;;;;3764682;28;10115624;-76
2022/01/27 09:44:41;;;;;;;73.95;55.35;;;20.20;46.60;;;;;;4061327;28;10092074;-76
2022/01/27 09:47:16;;;;;;;77.25;56.55;;;20.30;46.30;;;;;;4904805;28;90419;-77
2022/01/27 09:53:03;;;;;;;76.07;55.65;;;20.40;46.40;;;;;;4890685;28;89842;-76
2022/01/27 09:55:34;;;;;;;74.25;55.47;;;20.40;46.20;;;;;;4904153;28;92993;-75
2022/01/27 09:58:15;;;;;;;77.53;55.75;;;20.50;46.10;;;;;;4903874;28;90715;-76
2022/01/27 10:00:44;;;;;;;;;;;20.50;46.10;;;;;;4901641;28;91170;-73
2022/01/27 10:03:17;;;;;;;75.40;54.63;;;20.60;45.90;;;;;;4912672;28;93978;-73
2022/01/27 10:05:51;;;;;;;74.20;54.72;;;20.40;46.20;;;;;;4906942;28;92078;-74
2022/01/27 10:08:21;;;;;;;72.85;54.60;;;20.30;46.40;;;;;;4917942;28;91841;-73
2022/01/27 10:10:50;;;;;;;73.68;54.75;;;20.10;46.80;;;;;;4911335;28;92054;-73
2022/01/27 10:13:39;;;;;;;75.35;54.67;;;20.00;47.20;;;;;;4908999;28;90865;-74
2022/01/27 10:16:07;;;;;;;71.30;54.55;;;20.10;47.00;;;;;;4918257;28;90503;-74
2022/01/27 10:18:35;;;;;;;70.55;54.17;;;20.10;47.10;;;;;;4925513;28;90283;-73
2022/01/27 10:21:06;;;;;;;73.53;53.88;;;20.10;47.10;;;;;;4923124;28;90383;-73
2022/01/27 10:23:38;;;;;;;69.65;53.78;;;20.10;47.20;;;;;;4916663;28;92543;-73
2022/01/27 10:26:18;;;;;;;72.55;53.92;;;20.10;47.10;;;;;;4902046;28;93833;-73
2022/01/27 10:29:04;;;;;;;72.05;54.03;;;20.10;47.10;;;;;;4914604;28;89808;-73
2022/01/27 10:31:30;;;;;;;73.70;53.90;;;20.10;47.30;;;;;;4915896;28;91334;-73
2022/01/27 10:34:01;;;;;;;75.68;53.92;;;19.90;47.90;;;;;;4916387;28;91306;-73
2022/01/27 10:36:29;;;;;;;77.53;54.15;;;19.80;48.20;;;;;;4915785;28;91866;-73
2022/01/27 10:38:59;;;;;;;74.93;53.67;;;19.70;48.50;;;;;;4917996;28;91519;-71
2022/01/27 10:41:27;;;;;;;70.20;53.13;;;19.70;49.10;;;;;;4908494;28;90413;-72
2022/01/27 10:44:17;;;;;;;73.47;53.75;;;19.70;48.10;;;;;;4913602;28;97713;-73
2022/01/27 10:47:10;;;;;;;71.88;53.67;;;19.70;48.50;;;;;;4922727;28;91100;-73
2022/01/27 10:49:42;;;;;;;70.32;52.70;;;19.60;48.30;;;;;;4925378;28;91117;-72
2022/01/27 10:52:27;;;;;;;70.10;53.05;;;19.70;48.90;;;;;;4899629;28;92598;-72
2022/01/27 10:55:00;;;;;;;74.03;53.15;;;19.60;48.20;;;;;;4899166;28;90790;-72
2022/01/27 10:57:27;;;;;;;70.40;52.85;;;19.50;48.50;;;;;;4910466;28;90692;-73
2022/01/27 11:00:13;;;;;;;72.35;53.05;;;19.50;48.60;;;;;;4888165;28;93127;-73
2022/01/27 11:03:01;;;;;;;70.53;52.42;;;19.50;48.90;;;;;;4918272;28;92179;-73
2022/01/27 11:05:31;;;;;;;69.68;52.63;;;19.50;49.20;;;;;;4888222;28;91785;-73
2022/01/27 11:07:58;;;;;;;72.38;52.45;;;19.60;48.90;;;;;;4903585;28;90705;-73
2022/01/27 11:10:24;;;;;;;69.78;52.47;;;19.50;49.00;;;;;;4902708;28;91946;-74
2022/01/27 11:12:53;;;;;;;70.40;52.78;;;19.50;49.30;;;;;;4906104;28;91086;-74
2022/01/27 11:15:24;;;;;;;67.35;52.30;;;19.50;49.20;;;;;;4896802;28;92178;-73
2022/01/27 11:17:50;;;;;;;68.28;52.60;;;19.40;49.10;;;;;;4882779;28;90221;-73
2022/01/27 11:27:45;;;;;;;68.82;51.92;;;19.30;49.60;;;;;;4898610;28;90413;-74
2022/01/27 11:30:20;;;;;;;70.47;51.83;;;19.40;49.60;;;;;;4905961;28;89975;-75
2022/01/27 11:32:55;;;;;;;70.95;52.10;;;19.30;49.70;;;;;;4917223;28;91579;-75
2022/01/27 11:35:22;;;;;;;70.43;52.45;;;19.30;49.70;;;;;;4880120;28;92764;-75
2022/01/27 11:38:01;;;;;;;67.93;52.45;;;19.30;49.50;;;;;;4911339;28;90381;-74
2022/01/27 11:40:42;;;;;;;70.53;52.05;;;19.30;49.50;;;;;;4905315;28;90636;-74
2022/01/27 11:43:10;;;;;;;70.07;52.75;;;19.30;49.50;;;;;;4926321;28;95962;-75
2022/01/27 11:45:42;;;;;;;68.75;52.53;;;19.20;49.40;;;;;;4912776;28;93756;-76
2022/01/27 11:48:11;;;;;;;71.07;52.75;;;19.10;49.70;;;;;;4906205;28;89597;-76
2022/01/27 11:50:57;;;;;;;67.60;52.60;;;19.10;49.80;;;;;;4879444;28;94093;-75
2022/01/27 11:53:38;;;;;;;71.43;52.83;;;19.10;50.20;;;;;;4913147;28;91022;-74
2022/01/27 11:56:07;;;;;;;74.33;52.63;;;19.10;50.60;;;;;;4901877;28;93390;-76
2022/01/27 11:58:45;;;;;;;72.72;52.97;;;19.10;50.50;;;;;;4911644;28;90450;-76
2022/01/27 12:01:17;;;;;;;74.70;53.03;;;19.10;50.80;;;;;;4898402;28;91930;-75
2022/01/27 12:04:11;;;;;;;77.80;52.75;;;19.10;50.90;;;;;;4889977;28;90740;-75
2022/01/27 12:06:42;;;;;;;71.80;52.97;;;19.00;52.00;;;;;;4905603;28;95026;-77
2022/01/27 12:09:17;;;;;;;70.38;52.35;;;19.10;52.00;;;;;;4912097;28;89991;-75
2022/01/27 12:11:48;;;;;;;71.50;52.78;;;19.10;52.10;;;;;;4922640;28;90467;-76
2022/01/27 12:14:16;;;;;;;68.57;52.63;;;19.10;52.00;;;;;;4915406;28;93712;-76
2022/01/27 12:19:14;;;;;;;68.85;52.72;;;19.20;52.00;;;;;;4918230;28;90379;-77
2022/01/27 12:21:54;;;;;;;70.88;53.10;;;19.20;51.90;;;;;;4911087;28;90779;-78
2022/01/27 12:24:25;;;;;;;69.40;52.80;;;19.20;51.80;;;;;;4910502;28;92439;-78
2022/01/27 12:26:57;;;;;;;70.05;52.70;;;19.20;51.90;;;;;;4910371;28;91927;-78
2022/01/27 12:29:28;;;;;;;71.35;53.47;;;19.20;51.70;;;;;;4904526;28;91986;-77
2022/01/27 12:31:56;;;;;;;69.07;52.80;;;19.20;51.80;;;;;;4902472;28;91654;-76
2022/01/27 12:34:22;;;;;;;72.25;52.40;;;19.20;51.60;;;;;;4909474;28;89715;-76
2022/01/27 12:36:56;;;;;;;70.55;52.63;;;19.20;51.90;;;;;;4914309;28;91567;-76
2022/01/27 12:39:24;;;;;;;68.85;52.67;;;19.20;51.80;;;;;;4910051;28;90652;-77
2022/01/27 12:41:51;;;;;;;70.72;53.35;;;19.20;51.80;;;;;;4911737;28;93764;-75
2022/01/27 12:44:17;;;;;;;68.40;52.70;;;19.20;52.20;;;;;;4903979;28;91605;-75
2022/01/27 12:47:03;;;;;;;76.22;53.00;;;19.20;52.20;;;;;;4888427;28;92381;-76
2022/01/27 12:49:37;;;;;;;69.78;52.28;;;19.10;52.20;;;;;;4903270;28;90454;-76
2022/01/27 12:52:28;;;;;;;70.78;52.95;;;19.20;52.20;;;;;;4857479;28;99722;-75
2022/01/27 12:54:54;;;;;;;72.22;52.92;;;19.20;52.00;;;;;;4498237;28;10000288;-75
2022/01/27 12:57:28;;;;;;;73.93;53.13;;;19.30;51.90;;;;;;4894007;28;90617;-73
2022/01/27 12:59:55;;;;;;;71.80;52.45;;;19.40;51.50;;;;;;4899759;28;92580;-73
2022/01/27 13:02:23;;;;;;;72.05;53.20;;;19.50;51.20;;;;;;4884922;28;92319;-73
2022/01/27 13:04:52;;;;;;;69.15;52.33;;;19.50;51.20;;;;;;4881554;28;92703;-74
2022/01/27 13:07:20;;;;;;;71.60;52.63;;;19.60;51.40;;;;;;4876039;28;92349;-74
2022/01/27 13:10:00;;;;;;;70.13;52.55;;;19.60;51.10;;;;;;4880301;28;93391;-74
2022/01/27 13:12:32;;;;;;;69.70;52.30;;;19.60;51.20;;;;;;4891474;28;90470;-73
2022/01/27 13:15:09;;;;;;;71.50;52.33;;;19.60;51.50;;;;;;4898050;28;90058;-73
2022/01/27 13:20:40;;;;;;;74.25;52.47;;;19.50;51.60;;;;;;4844274;28;91616;-73
2022/01/27 13:26:07;;;;;;;72.10;52.00;;;19.50;51.70;;;;;;4912630;28;91227;-74
2022/01/27 13:28:36;;;;;;;68.60;51.70;;;19.50;51.70;;;;;;4900469;28;91049;-74
2022/01/27 13:31:07;;;;;;;70.45;51.95;;;19.50;51.60;;;;;;4889527;28;90266;-73
2022/01/27 13:33:42;;;;;;;67.88;51.75;;;19.50;51.40;;;;;;4903752;28;92737;-73
2022/01/27 13:36:19;;;;;;;70.00;51.97;;;19.50;51.40;;;;;;4878868;28;94546;-74
2022/01/27 13:39:35;;;;;;;68.10;51.55;;;19.60;51.50;;;;;;4900151;28;90356;-73
2022/01/27 13:41:45;;;;;;;71.00;51.78;;;19.60;51.40;;;;;;4894959;28;91002;-73
2022/01/27 13:44:13;;;;;;;67.75;51.65;;;19.60;51.30;;;;;;4916178;28;91888;-74
2022/01/27 13:46:48;;;;;;;68.88;51.83;;;19.60;51.40;;;;;;4888904;28;90548;-73
2022/01/27 13:49:21;;;;;;;67.07;51.72;;;19.70;51.20;;;;;;4898470;28;91856;-73
2022/01/27 13:52:16;;;;;;;67.00;51.20;;;19.70;51.10;;;;;;4911827;28;91588;-74
2022/01/27 13:54:49;;;;;;;71.07;51.75;;;19.80;51.10;;;;;;4906925;28;90622;-74
2022/01/27 13:57:21;;;;;;;71.05;51.75;;;19.80;50.80;;;;;;4906129;28;90537;-72
2022/01/27 13:59:58;;;;;;;67.75;51.20;;;19.80;50.70;;;;;;4900046;28;91674;-72
2022/01/27 14:02:31;;;;;;;66.70;51.05;;;19.90;50.80;;;;;;4913353;28;90665;-74
2022/01/27 14:05:12;;;;;;;70.32;51.60;;;19.90;50.70;;;;;;4898455;28;89949;-73